sensor_id;sensor_type;location;lat;lon;timestamp;P1;durP1;ratioP1;P2;durP2;ratioP2
24173;SDS011;12324;48.146;11.502;2023-02-08T00:00:37;26.85;;;13.80;;
24173;SDS011;12324;48.146;11.502;2023-02-08T00:03:05;27.83;;;13.48;;
24173;SDS011;12324;48.146;11.502;2023-02-08T00:05:32;29.45;;;14.10;;
24173;SDS011;12324;48.146;11.502;2023-02-08T00:07:59;28.42;;;13.32;;
24173;SDS011;12324;48.146;11.502;2023-02-08T00:10:26;29.02;;;13.82;;
24173;SDS011;12324;48.146;11.502;2023-02-08T00:12:53;23.85;;;12.70;;
24173;SDS011;12324;48.146;11.502;2023-02-08T00:15:20;27.70;;;14.15;;
24173;SDS011;12324;48.146;11.502;2023-02-08T00:17:47;28.10;;;13.32;;
24173;SDS011;12324;48.146;11.502;2023-02-08T00:20:14;26.08;;;13.35;;
24173;SDS011;12324;48.146;11.502;2023-02-08T00:22:41;28.05;;;14.95;;
24173;SDS011;12324;48.146;11.502;2023-02-08T00:25:09;28.65;;;14.10;;
24173;SDS011;12324;48.146;11.502;2023-02-08T00:27:36;25.00;;;13.82;;
24173;SDS011;12324;48.146;11.502;2023-02-08T00:30:03;27.83;;;14.23;;
24173;SDS011;12324;48.146;11.502;2023-02-08T00:32:30;25.95;;;13.65;;
24173;SDS011;12324;48.146;11.502;2023-02-08T00:34:57;25.40;;;13.43;;
24173;SDS011;12324;48.146;11.502;2023-02-08T00:37:24;27.20;;;13.98;;
24173;SDS011;12324;48.146;11.502;2023-02-08T00:39:51;29.25;;;14.90;;
24173;SDS011;12324;48.146;11.502;2023-02-08T00:42:18;27.27;;;14.70;;
24173;SDS011;12324;48.146;11.502;2023-02-08T00:44:45;28.45;;;14.63;;
24173;SDS011;12324;48.146;11.502;2023-02-08T00:47:12;25.27;;;14.38;;
24173;SDS011;12324;48.146;11.502;2023-02-08T00:49:39;26.98;;;14.00;;
24173;SDS011;12324;48.146;11.502;2023-02-08T00:52:06;24.88;;;13.70;;
24173;SDS011;12324;48.146;11.502;2023-02-08T00:54:33;27.77;;;14.80;;
24173;SDS011;12324;48.146;11.502;2023-02-08T00:57:00;26.27;;;14.65;;
24173;SDS011;12324;48.146;11.502;2023-02-08T00:59:28;25.80;;;15.00;;
24173;SDS011;12324;48.146;11.502;2023-02-08T01:01:55;27.67;;;14.25;;
24173;SDS011;12324;48.146;11.502;2023-02-08T01:04:22;27.17;;;14.65;;
24173;SDS011;12324;48.146;11.502;2023-02-08T01:06:49;24.92;;;13.60;;
24173;SDS011;12324;48.146;11.502;2023-02-08T01:09:16;26.02;;;13.88;;
24173;SDS011;12324;48.146;11.502;2023-02-08T01:11:43;26.55;;;13.93;;
24173;SDS011;12324;48.146;11.502;2023-02-08T01:14:10;27.65;;;14.60;;
24173;SDS011;12324;48.146;11.502;2023-02-08T01:16:37;27.00;;;13.70;;
24173;SDS011;12324;48.146;11.502;2023-02-08T01:19:04;28.02;;;15.25;;
24173;SDS011;12324;48.146;11.502;2023-02-08T01:21:33;24.50;;;13.63;;
24173;SDS011;12324;48.146;11.502;2023-02-08T01:24:00;28.38;;;14.98;;
24173;SDS011;12324;48.146;11.502;2023-02-08T01:26:27;29.77;;;15.88;;
24173;SDS011;12324;48.146;11.502;2023-02-08T01:28:55;29.33;;;15.90;;
24173;SDS011;12324;48.146;11.502;2023-02-08T01:31:23;29.48;;;15.73;;
24173;SDS011;12324;48.146;11.502;2023-02-08T01:33:50;25.25;;;14.32;;
24173;SDS011;12324;48.146;11.502;2023-02-08T01:36:17;29.55;;;15.88;;
24173;SDS011;12324;48.146;11.502;2023-02-08T01:38:45;31.48;;;16.40;;
24173;SDS011;12324;48.146;11.502;2023-02-08T01:41:19;27.60;;;14.45;;
24173;SDS011;12324;48.146;11.502;2023-02-08T01:46:29;31.70;;;16.83;;
24173;SDS011;12324;48.146;11.502;2023-02-08T01:48:57;30.58;;;15.20;;
24173;SDS011;12324;48.146;11.502;2023-02-08T01:51:26;32.40;;;15.45;;
24173;SDS011;12324;48.146;11.502;2023-02-08T01:53:54;29.05;;;16.75;;
24173;SDS011;12324;48.146;11.502;2023-02-08T01:56:24;28.40;;;13.98;;
24173;SDS011;12324;48.146;11.502;2023-02-08T01:58:53;29.63;;;15.95;;
24173;SDS011;12324;48.146;11.502;2023-02-08T02:01:21;32.00;;;16.17;;
24173;SDS011;12324;48.146;11.502;2023-02-08T02:03:48;28.42;;;15.55;;
24173;SDS011;12324;48.146;11.502;2023-02-08T02:06:17;29.38;;;16.15;;
24173;SDS011;12324;48.146;11.502;2023-02-08T02:08:46;25.52;;;14.43;;
24173;SDS011;12324;48.146;11.502;2023-02-08T02:11:17;28.02;;;14.43;;
24173;SDS011;12324;48.146;11.502;2023-02-08T02:13:44;29.23;;;16.02;;
24173;SDS011;12324;48.146;11.502;2023-02-08T02:16:12;30.52;;;15.75;;
24173;SDS011;12324;48.146;11.502;2023-02-08T02:18:39;27.98;;;15.57;;
24173;SDS011;12324;48.146;11.502;2023-02-08T02:24:09;31.45;;;16.83;;
24173;SDS011;12324;48.146;11.502;2023-02-08T02:29:13;28.60;;;16.00;;
24173;SDS011;12324;48.146;11.502;2023-02-08T02:31:49;33.83;;;16.48;;
24173;SDS011;12324;48.146;11.502;2023-02-08T02:34:29;35.83;;;16.00;;
24173;SDS011;12324;48.146;11.502;2023-02-08T02:50:35;22.60;;;11.95;;
24173;SDS011;12324;48.146;11.502;2023-02-08T02:53:11;31.05;;;17.27;;
24173;SDS011;12324;48.146;11.502;2023-02-08T02:55:44;30.00;;;16.63;;
24173;SDS011;12324;48.146;11.502;2023-02-08T02:58:12;29.98;;;16.08;;
24173;SDS011;12324;48.146;11.502;2023-02-08T03:00:41;32.45;;;16.88;;
24173;SDS011;12324;48.146;11.502;2023-02-08T03:03:19;31.92;;;17.25;;
24173;SDS011;12324;48.146;11.502;2023-02-08T03:05:47;30.85;;;17.20;;
24173;SDS011;12324;48.146;11.502;2023-02-08T03:08:37;31.25;;;16.25;;
24173;SDS011;12324;48.146;11.502;2023-02-08T03:11:13;33.13;;;17.55;;
24173;SDS011;12324;48.146;11.502;2023-02-08T03:16:43;34.45;;;17.02;;
24173;SDS011;12324;48.146;11.502;2023-02-08T03:19:15;33.78;;;17.23;;
24173;SDS011;12324;48.146;11.502;2023-02-08T03:21:57;29.35;;;16.17;;
24173;SDS011;12324;48.146;11.502;2023-02-08T03:32:57;30.73;;;17.95;;
24173;SDS011;12324;48.146;11.502;2023-02-08T03:35:06;30.13;;;17.85;;
24173;SDS011;12324;48.146;11.502;2023-02-08T03:37:36;29.27;;;15.88;;
24173;SDS011;12324;48.146;11.502;2023-02-08T03:40:39;29.88;;;16.08;;
24173;SDS011;12324;48.146;11.502;2023-02-08T03:42:59;29.80;;;17.77;;
24173;SDS011;12324;48.146;11.502;2023-02-08T03:45:31;30.77;;;17.98;;
24173;SDS011;12324;48.146;11.502;2023-02-08T03:47:59;27.25;;;16.35;;
24173;SDS011;12324;48.146;11.502;2023-02-08T03:50:29;32.17;;;16.92;;
24173;SDS011;12324;48.146;11.502;2023-02-08T03:52:59;31.80;;;17.10;;
24173;SDS011;12324;48.146;11.502;2023-02-08T03:55:28;33.90;;;18.45;;
24173;SDS011;12324;48.146;11.502;2023-02-08T03:58:02;30.77;;;17.48;;
24173;SDS011;12324;48.146;11.502;2023-02-08T04:00:31;34.28;;;17.50;;
24173;SDS011;12324;48.146;11.502;2023-02-08T04:03:01;34.03;;;18.15;;
24173;SDS011;12324;48.146;11.502;2023-02-08T04:05:31;30.25;;;16.80;;
24173;SDS011;12324;48.146;11.502;2023-02-08T04:07:58;33.08;;;17.00;;
24173;SDS011;12324;48.146;11.502;2023-02-08T04:10:26;35.75;;;18.48;;
24173;SDS011;12324;48.146;11.502;2023-02-08T04:12:53;37.20;;;17.95;;
24173;SDS011;12324;48.146;11.502;2023-02-08T04:15:20;29.77;;;17.20;;
24173;SDS011;12324;48.146;11.502;2023-02-08T04:17:47;30.98;;;16.98;;
24173;SDS011;12324;48.146;11.502;2023-02-08T04:20:15;31.25;;;17.60;;
24173;SDS011;12324;48.146;11.502;2023-02-08T04:22:42;32.58;;;16.70;;
24173;SDS011;12324;48.146;11.502;2023-02-08T04:25:09;33.40;;;18.33;;
24173;SDS011;12324;48.146;11.502;2023-02-08T04:27:36;31.75;;;16.92;;
24173;SDS011;12324;48.146;11.502;2023-02-08T04:30:03;32.13;;;18.20;;
24173;SDS011;12324;48.146;11.502;2023-02-08T04:32:31;33.80;;;18.67;;
24173;SDS011;12324;48.146;11.502;2023-02-08T04:34:58;36.17;;;19.40;;
24173;SDS011;12324;48.146;11.502;2023-02-08T04:37:25;32.05;;;18.45;;
24173;SDS011;12324;48.146;11.502;2023-02-08T04:39:52;32.70;;;18.88;;
24173;SDS011;12324;48.146;11.502;2023-02-08T04:42:19;31.33;;;17.80;;
24173;SDS011;12324;48.146;11.502;2023-02-08T04:44:46;33.28;;;18.88;;
24173;SDS011;12324;48.146;11.502;2023-02-08T04:47:13;34.20;;;17.98;;
24173;SDS011;12324;48.146;11.502;2023-02-08T04:49:40;32.60;;;18.77;;
24173;SDS011;12324;48.146;11.502;2023-02-08T04:52:07;36.67;;;20.42;;
24173;SDS011;12324;48.146;11.502;2023-02-08T04:54:34;33.50;;;17.40;;
24173;SDS011;12324;48.146;11.502;2023-02-08T04:57:01;35.92;;;18.17;;
24173;SDS011;12324;48.146;11.502;2023-02-08T04:59:28;33.25;;;18.70;;
24173;SDS011;12324;48.146;11.502;2023-02-08T05:01:55;36.95;;;18.95;;
24173;SDS011;12324;48.146;11.502;2023-02-08T05:04:22;29.55;;;16.80;;
24173;SDS011;12324;48.146;11.502;2023-02-08T05:06:49;31.48;;;18.50;;
24173;SDS011;12324;48.146;11.502;2023-02-08T05:09:16;33.67;;;19.23;;
24173;SDS011;12324;48.146;11.502;2023-02-08T05:11:43;34.75;;;19.02;;
24173;SDS011;12324;48.146;11.502;2023-02-08T05:14:10;36.80;;;19.73;;
24173;SDS011;12324;48.146;11.502;2023-02-08T05:16:37;41.45;;;20.08;;
24173;SDS011;12324;48.146;11.502;2023-02-08T05:19:05;34.35;;;18.67;;
24173;SDS011;12324;48.146;11.502;2023-02-08T05:21:32;34.75;;;19.10;;
24173;SDS011;12324;48.146;11.502;2023-02-08T05:23:59;32.97;;;18.15;;
24173;SDS011;12324;48.146;11.502;2023-02-08T05:26:26;34.38;;;19.48;;
24173;SDS011;12324;48.146;11.502;2023-02-08T05:28:53;35.33;;;21.50;;
24173;SDS011;12324;48.146;11.502;2023-02-08T05:31:20;37.45;;;18.85;;
24173;SDS011;12324;48.146;11.502;2023-02-08T05:33:48;34.75;;;20.10;;
24173;SDS011;12324;48.146;11.502;2023-02-08T05:36:15;34.63;;;20.55;;
24173;SDS011;12324;48.146;11.502;2023-02-08T05:38:42;36.03;;;19.80;;
24173;SDS011;12324;48.146;11.502;2023-02-08T05:41:09;33.05;;;18.92;;
24173;SDS011;12324;48.146;11.502;2023-02-08T05:43:36;30.80;;;18.45;;
24173;SDS011;12324;48.146;11.502;2023-02-08T05:46:03;35.80;;;18.83;;
24173;SDS011;12324;48.146;11.502;2023-02-08T05:48:31;39.88;;;21.77;;
24173;SDS011;12324;48.146;11.502;2023-02-08T05:50:58;35.90;;;20.40;;
24173;SDS011;12324;48.146;11.502;2023-02-08T05:53:25;37.78;;;21.88;;
24173;SDS011;12324;48.146;11.502;2023-02-08T05:55:53;32.88;;;19.13;;
24173;SDS011;12324;48.146;11.502;2023-02-08T05:58:20;34.22;;;19.27;;
24173;SDS011;12324;48.146;11.502;2023-02-08T06:00:47;36.80;;;19.90;;
24173;SDS011;12324;48.146;11.502;2023-02-08T06:03:14;39.33;;;19.73;;
24173;SDS011;12324;48.146;11.502;2023-02-08T06:05:41;36.20;;;20.50;;
24173;SDS011;12324;48.146;11.502;2023-02-08T06:08:08;34.50;;;19.63;;
24173;SDS011;12324;48.146;11.502;2023-02-08T06:10:35;36.03;;;19.75;;
24173;SDS011;12324;48.146;11.502;2023-02-08T06:13:03;36.65;;;20.23;;
24173;SDS011;12324;48.146;11.502;2023-02-08T06:15:30;40.08;;;21.13;;
24173;SDS011;12324;48.146;11.502;2023-02-08T06:17:57;33.42;;;21.00;;
24173;SDS011;12324;48.146;11.502;2023-02-08T06:20:24;35.83;;;21.33;;
24173;SDS011;12324;48.146;11.502;2023-02-08T06:22:51;37.53;;;22.65;;
24173;SDS011;12324;48.146;11.502;2023-02-08T06:25:18;36.22;;;21.13;;
24173;SDS011;12324;48.146;11.502;2023-02-08T06:27:45;33.78;;;20.08;;
24173;SDS011;12324;48.146;11.502;2023-02-08T06:30:12;36.35;;;22.15;;
24173;SDS011;12324;48.146;11.502;2023-02-08T06:32:39;39.63;;;21.98;;
24173;SDS011;12324;48.146;11.502;2023-02-08T06:35:06;43.55;;;24.35;;
24173;SDS011;12324;48.146;11.502;2023-02-08T06:37:34;39.42;;;22.50;;
24173;SDS011;12324;48.146;11.502;2023-02-08T06:40:01;37.92;;;21.58;;
24173;SDS011;12324;48.146;11.502;2023-02-08T06:42:28;33.92;;;21.60;;
24173;SDS011;12324;48.146;11.502;2023-02-08T06:44:55;36.83;;;23.00;;
24173;SDS011;12324;48.146;11.502;2023-02-08T06:47:26;38.83;;;23.08;;
24173;SDS011;12324;48.146;11.502;2023-02-08T06:49:53;38.90;;;23.40;;
24173;SDS011;12324;48.146;11.502;2023-02-08T06:52:20;41.65;;;23.25;;
24173;SDS011;12324;48.146;11.502;2023-02-08T06:54:47;40.00;;;23.05;;
24173;SDS011;12324;48.146;11.502;2023-02-08T06:57:14;36.25;;;22.75;;
24173;SDS011;12324;48.146;11.502;2023-02-08T06:59:41;38.28;;;21.95;;
24173;SDS011;12324;48.146;11.502;2023-02-08T07:02:13;35.15;;;21.30;;
24173;SDS011;12324;48.146;11.502;2023-02-08T07:04:40;36.10;;;21.80;;
24173;SDS011;12324;48.146;11.502;2023-02-08T07:07:07;39.40;;;23.70;;
24173;SDS011;12324;48.146;11.502;2023-02-08T07:09:35;30.88;;;20.02;;
24173;SDS011;12324;48.146;11.502;2023-02-08T07:12:02;34.90;;;21.13;;
24173;SDS011;12324;48.146;11.502;2023-02-08T07:14:34;36.17;;;21.60;;
24173;SDS011;12324;48.146;11.502;2023-02-08T07:17:01;37.58;;;21.42;;
24173;SDS011;12324;48.146;11.502;2023-02-08T07:19:28;37.60;;;22.13;;
24173;SDS011;12324;48.146;11.502;2023-02-08T07:21:56;38.88;;;21.65;;
24173;SDS011;12324;48.146;11.502;2023-02-08T07:24:28;36.72;;;20.70;;
24173;SDS011;12324;48.146;11.502;2023-02-08T07:26:55;38.28;;;21.10;;
24173;SDS011;12324;48.146;11.502;2023-02-08T07:29:22;39.95;;;22.63;;
24173;SDS011;12324;48.146;11.502;2023-02-08T07:31:49;44.47;;;22.55;;
24173;SDS011;12324;48.146;11.502;2023-02-08T07:34:16;38.05;;;20.83;;
24173;SDS011;12324;48.146;11.502;2023-02-08T07:36:47;40.78;;;22.90;;
24173;SDS011;12324;48.146;11.502;2023-02-08T07:39:14;41.38;;;22.58;;
24173;SDS011;12324;48.146;11.502;2023-02-08T07:41:41;36.55;;;20.95;;
24173;SDS011;12324;48.146;11.502;2023-02-08T07:44:08;38.30;;;22.13;;
24173;SDS011;12324;48.146;11.502;2023-02-08T07:46:35;34.35;;;21.35;;
24173;SDS011;12324;48.146;11.502;2023-02-08T07:49:02;39.03;;;21.45;;
24173;SDS011;12324;48.146;11.502;2023-02-08T07:51:29;39.28;;;21.83;;
24173;SDS011;12324;48.146;11.502;2023-02-08T07:53:56;36.67;;;21.67;;
24173;SDS011;12324;48.146;11.502;2023-02-08T07:56:23;32.28;;;20.58;;
24173;SDS011;12324;48.146;11.502;2023-02-08T07:58:50;40.95;;;21.17;;
24173;SDS011;12324;48.146;11.502;2023-02-08T08:01:17;39.33;;;20.02;;
24173;SDS011;12324;48.146;11.502;2023-02-08T08:03:48;36.70;;;19.75;;
24173;SDS011;12324;48.146;11.502;2023-02-08T08:06:16;38.38;;;22.27;;
24173;SDS011;12324;48.146;11.502;2023-02-08T08:08:43;34.78;;;20.45;;
24173;SDS011;12324;48.146;11.502;2023-02-08T08:11:16;30.58;;;17.88;;
24173;SDS011;12324;48.146;11.502;2023-02-08T08:13:43;37.80;;;22.17;;
24173;SDS011;12324;48.146;11.502;2023-02-08T08:16:10;36.92;;;21.17;;
24173;SDS011;12324;48.146;11.502;2023-02-08T08:18:37;31.52;;;19.42;;
24173;SDS011;12324;48.146;11.502;2023-02-08T08:21:05;34.00;;;20.67;;
24173;SDS011;12324;48.146;11.502;2023-02-08T08:23:32;35.13;;;21.35;;
24173;SDS011;12324;48.146;11.502;2023-02-08T08:26:08;33.60;;;20.65;;
24173;SDS011;12324;48.146;11.502;2023-02-08T08:28:35;37.90;;;20.63;;
24173;SDS011;12324;48.146;11.502;2023-02-08T08:31:07;40.30;;;20.80;;
24173;SDS011;12324;48.146;11.502;2023-02-08T08:33:35;33.70;;;19.10;;
24173;SDS011;12324;48.146;11.502;2023-02-08T08:36:02;33.50;;;20.55;;
24173;SDS011;12324;48.146;11.502;2023-02-08T08:38:29;34.00;;;20.80;;
24173;SDS011;12324;48.146;11.502;2023-02-08T08:40:56;32.78;;;19.90;;
24173;SDS011;12324;48.146;11.502;2023-02-08T08:43:23;36.60;;;20.85;;
24173;SDS011;12324;48.146;11.502;2023-02-08T08:45:50;38.20;;;20.88;;
24173;SDS011;12324;48.146;11.502;2023-02-08T08:48:18;32.40;;;18.75;;
24173;SDS011;12324;48.146;11.502;2023-02-08T08:50:45;33.30;;;18.48;;
24173;SDS011;12324;48.146;11.502;2023-02-08T08:53:13;32.88;;;20.35;;
24173;SDS011;12324;48.146;11.502;2023-02-08T08:55:40;26.58;;;16.48;;
24173;SDS011;12324;48.146;11.502;2023-02-08T08:58:10;32.40;;;19.08;;
24173;SDS011;12324;48.146;11.502;2023-02-08T09:00:37;35.28;;;20.23;;
24173;SDS011;12324;48.146;11.502;2023-02-08T09:03:05;35.40;;;19.80;;
24173;SDS011;12324;48.146;11.502;2023-02-08T09:05:33;29.77;;;18.73;;
24173;SDS011;12324;48.146;11.502;2023-02-08T09:08:00;32.08;;;18.35;;
24173;SDS011;12324;48.146;11.502;2023-02-08T09:10:28;32.72;;;18.40;;
24173;SDS011;12324;48.146;11.502;2023-02-08T09:12:56;34.17;;;20.02;;
24173;SDS011;12324;48.146;11.502;2023-02-08T09:15:23;28.10;;;17.52;;
24173;SDS011;12324;48.146;11.502;2023-02-08T09:17:50;33.38;;;17.75;;
24173;SDS011;12324;48.146;11.502;2023-02-08T09:20:17;31.98;;;18.33;;
24173;SDS011;12324;48.146;11.502;2023-02-08T09:22:44;34.60;;;21.23;;
24173;SDS011;12324;48.146;11.502;2023-02-08T09:25:11;34.97;;;18.52;;
24173;SDS011;12324;48.146;11.502;2023-02-08T09:27:38;33.22;;;19.80;;
24173;SDS011;12324;48.146;11.502;2023-02-08T09:30:06;33.80;;;20.23;;
24173;SDS011;12324;48.146;11.502;2023-02-08T09:32:33;32.28;;;19.45;;
24173;SDS011;12324;48.146;11.502;2023-02-08T09:35:00;33.75;;;19.55;;
24173;SDS011;12324;48.146;11.502;2023-02-08T09:37:28;32.08;;;18.80;;
24173;SDS011;12324;48.146;11.502;2023-02-08T09:39:55;31.75;;;18.33;;
24173;SDS011;12324;48.146;11.502;2023-02-08T09:44:59;36.40;;;21.42;;
24173;SDS011;12324;48.146;11.502;2023-02-08T09:50:08;31.88;;;19.58;;
24173;SDS011;12324;48.146;11.502;2023-02-08T09:55:07;31.33;;;18.73;;
24173;SDS011;12324;48.146;11.502;2023-02-08T09:57:36;31.83;;;19.15;;
24173;SDS011;12324;48.146;11.502;2023-02-08T10:00:06;34.30;;;20.38;;
24173;SDS011;12324;48.146;11.502;2023-02-08T10:02:33;34.30;;;18.98;;
24173;SDS011;12324;48.146;11.502;2023-02-08T10:05:02;35.60;;;19.50;;
24173;SDS011;12324;48.146;11.502;2023-02-08T10:07:30;37.55;;;20.08;;
24173;SDS011;12324;48.146;11.502;2023-02-08T10:09:59;30.25;;;18.88;;
24173;SDS011;12324;48.146;11.502;2023-02-08T10:17:42;34.05;;;19.80;;
24173;SDS011;12324;48.146;11.502;2023-02-08T10:22:41;35.28;;;19.52;;
24173;SDS011;12324;48.146;11.502;2023-02-08T10:27:58;32.13;;;20.13;;
24173;SDS011;12324;48.146;11.502;2023-02-08T10:35:44;40.03;;;20.17;;
24173;SDS011;12324;48.146;11.502;2023-02-08T10:40:46;29.90;;;19.00;;
24173;SDS011;12324;48.146;11.502;2023-02-08T10:43:18;32.58;;;19.50;;
24173;SDS011;12324;48.146;11.502;2023-02-08T10:48:26;36.45;;;18.50;;
24173;SDS011;12324;48.146;11.502;2023-02-08T10:50:55;33.22;;;19.90;;
24173;SDS011;12324;48.146;11.502;2023-02-08T10:53:22;31.65;;;19.25;;
24173;SDS011;12324;48.146;11.502;2023-02-08T10:55:49;34.67;;;19.75;;
24173;SDS011;12324;48.146;11.502;2023-02-08T10:58:20;31.08;;;18.63;;
24173;SDS011;12324;48.146;11.502;2023-02-08T11:00:47;34.28;;;19.75;;
24173;SDS011;12324;48.146;11.502;2023-02-08T11:03:19;32.00;;;19.42;;
24173;SDS011;12324;48.146;11.502;2023-02-08T11:05:46;32.15;;;20.50;;
24173;SDS011;12324;48.146;11.502;2023-02-08T11:08:19;30.20;;;20.20;;
24173;SDS011;12324;48.146;11.502;2023-02-08T11:10:57;33.70;;;19.95;;
24173;SDS011;12324;48.146;11.502;2023-02-08T11:13:41;31.13;;;18.17;;
24173;SDS011;12324;48.146;11.502;2023-02-08T11:18:40;29.00;;;18.13;;
24173;SDS011;12324;48.146;11.502;2023-02-08T11:21:26;39.17;;;20.30;;
24173;SDS011;12324;48.146;11.502;2023-02-08T11:23:55;35.65;;;20.88;;
24173;SDS011;12324;48.146;11.502;2023-02-08T11:26:23;40.17;;;22.30;;
24173;SDS011;12324;48.146;11.502;2023-02-08T11:28:58;34.10;;;20.33;;
24173;SDS011;12324;48.146;11.502;2023-02-08T11:31:25;33.10;;;18.83;;
24173;SDS011;12324;48.146;11.502;2023-02-08T11:34:03;33.45;;;20.95;;
24173;SDS011;12324;48.146;11.502;2023-02-08T11:36:32;33.35;;;19.58;;
24173;SDS011;12324;48.146;11.502;2023-02-08T11:39:00;34.47;;;21.85;;
24173;SDS011;12324;48.146;11.502;2023-02-08T11:41:27;35.33;;;20.67;;
24173;SDS011;12324;48.146;11.502;2023-02-08T11:46:23;34.75;;;21.75;;
24173;SDS011;12324;48.146;11.502;2023-02-08T11:48:51;34.08;;;18.77;;
24173;SDS011;12324;48.146;11.502;2023-02-08T11:51:23;34.70;;;20.00;;
24173;SDS011;12324;48.146;11.502;2023-02-08T11:53:51;36.53;;;21.30;;
24173;SDS011;12324;48.146;11.502;2023-02-08T11:59:20;35.83;;;22.48;;
24173;SDS011;12324;48.146;11.502;2023-02-08T12:01:40;37.22;;;21.77;;
24173;SDS011;12324;48.146;11.502;2023-02-08T12:04:09;34.65;;;22.83;;
24173;SDS011;12324;48.146;11.502;2023-02-08T12:09:29;37.55;;;22.75;;
24173;SDS011;12324;48.146;11.502;2023-02-08T12:12:04;33.30;;;20.75;;
24173;SDS011;12324;48.146;11.502;2023-02-08T12:14:48;32.88;;;21.77;;
24173;SDS011;12324;48.146;11.502;2023-02-08T12:22:32;34.67;;;21.85;;
24173;SDS011;12324;48.146;11.502;2023-02-08T12:33:10;36.90;;;22.75;;
24173;SDS011;12324;48.146;11.502;2023-02-08T12:39:30;35.25;;;22.70;;
24173;SDS011;12324;48.146;11.502;2023-02-08T12:49:20;32.95;;;21.55;;
24173;SDS011;12324;48.146;11.502;2023-02-08T12:54:36;34.03;;;24.45;;
24173;SDS011;12324;48.146;11.502;2023-02-08T12:57:05;35.22;;;22.23;;
24173;SDS011;12324;48.146;11.502;2023-02-08T12:59:34;36.53;;;24.67;;
24173;SDS011;12324;48.146;11.502;2023-02-08T13:02:12;31.70;;;21.85;;
24173;SDS011;12324;48.146;11.502;2023-02-08T13:04:42;33.25;;;22.40;;
24173;SDS011;12324;48.146;11.502;2023-02-08T13:07:22;33.45;;;22.13;;
24173;SDS011;12324;48.146;11.502;2023-02-08T13:12:40;35.38;;;21.92;;
24173;SDS011;12324;48.146;11.502;2023-02-08T13:18:00;33.03;;;22.95;;
24173;SDS011;12324;48.146;11.502;2023-02-08T13:23:28;34.60;;;22.10;;
24173;SDS011;12324;48.146;11.502;2023-02-08T13:28:48;33.30;;;21.33;;
24173;SDS011;12324;48.146;11.502;2023-02-08T13:31:21;33.25;;;20.98;;
24173;SDS011;12324;48.146;11.502;2023-02-08T13:33:50;30.40;;;19.60;;
24173;SDS011;12324;48.146;11.502;2023-02-08T13:38:54;30.63;;;19.45;;
24173;SDS011;12324;48.146;11.502;2023-02-08T13:41:23;30.02;;;19.27;;
24173;SDS011;12324;48.146;11.502;2023-02-08T13:44:17;29.48;;;18.60;;
24173;SDS011;12324;48.146;11.502;2023-02-08T13:46:48;28.42;;;17.42;;
24173;SDS011;12324;48.146;11.502;2023-02-08T13:52:02;28.60;;;18.33;;
24173;SDS011;12324;48.146;11.502;2023-02-08T13:54:29;27.27;;;17.50;;
24173;SDS011;12324;48.146;11.502;2023-02-08T13:56:56;25.83;;;17.58;;
24173;SDS011;12324;48.146;11.502;2023-02-08T13:59:31;27.00;;;17.58;;
24173;SDS011;12324;48.146;11.502;2023-02-08T14:02:17;29.95;;;17.65;;
24173;SDS011;12324;48.146;11.502;2023-02-08T14:04:51;25.67;;;16.85;;
24173;SDS011;12324;48.146;11.502;2023-02-08T14:08:02;25.52;;;16.35;;
24173;SDS011;12324;48.146;11.502;2023-02-08T14:10:20;26.17;;;17.40;;
24173;SDS011;12324;48.146;11.502;2023-02-08T14:12:53;27.70;;;17.15;;
24173;SDS011;12324;48.146;11.502;2023-02-08T14:15:26;25.35;;;16.23;;
24173;SDS011;12324;48.146;11.502;2023-02-08T14:17:54;26.95;;;16.98;;
24173;SDS011;12324;48.146;11.502;2023-02-08T14:23:21;31.35;;;18.00;;
24173;SDS011;12324;48.146;11.502;2023-02-08T14:25:49;30.05;;;18.35;;
24173;SDS011;12324;48.146;11.502;2023-02-08T14:28:24;26.77;;;17.98;;
24173;SDS011;12324;48.146;11.502;2023-02-08T14:30:53;29.55;;;17.52;;
24173;SDS011;12324;48.146;11.502;2023-02-08T14:33:41;28.50;;;18.33;;
24173;SDS011;12324;48.146;11.502;2023-02-08T14:46:59;27.60;;;16.00;;
24173;SDS011;12324;48.146;11.502;2023-02-08T14:49:26;27.45;;;16.55;;
24173;SDS011;12324;48.146;11.502;2023-02-08T14:52:05;26.30;;;17.00;;
24173;SDS011;12324;48.146;11.502;2023-02-08T14:54:37;25.55;;;15.88;;
24173;SDS011;12324;48.146;11.502;2023-02-08T14:57:16;25.67;;;16.27;;
24173;SDS011;12324;48.146;11.502;2023-02-08T14:59:47;27.98;;;15.65;;
24173;SDS011;12324;48.146;11.502;2023-02-08T15:02:18;26.33;;;14.65;;
24173;SDS011;12324;48.146;11.502;2023-02-08T15:04:46;25.73;;;16.02;;
24173;SDS011;12324;48.146;11.502;2023-02-08T15:10:00;28.92;;;16.88;;
24173;SDS011;12324;48.146;11.502;2023-02-08T15:14:58;24.35;;;15.15;;
24173;SDS011;12324;48.146;11.502;2023-02-08T15:17:31;30.58;;;15.70;;
24173;SDS011;12324;48.146;11.502;2023-02-08T15:19:59;29.17;;;16.33;;
24173;SDS011;12324;48.146;11.502;2023-02-08T15:22:28;30.40;;;17.42;;
24173;SDS011;12324;48.146;11.502;2023-02-08T15:24:58;28.52;;;15.27;;
24173;SDS011;12324;48.146;11.502;2023-02-08T15:27:28;29.20;;;16.23;;
24173;SDS011;12324;48.146;11.502;2023-02-08T15:29:55;29.85;;;16.17;;
24173;SDS011;12324;48.146;11.502;2023-02-08T15:32:23;27.30;;;15.68;;
24173;SDS011;12324;48.146;11.502;2023-02-08T15:34:55;26.25;;;16.45;;
24173;SDS011;12324;48.146;11.502;2023-02-08T15:37:23;25.45;;;15.63;;
24173;SDS011;12324;48.146;11.502;2023-02-08T15:39:51;30.02;;;17.92;;
24173;SDS011;12324;48.146;11.502;2023-02-08T15:42:23;29.80;;;17.15;;
24173;SDS011;12324;48.146;11.502;2023-02-08T15:44:51;27.95;;;16.63;;
24173;SDS011;12324;48.146;11.502;2023-02-08T15:49:48;29.20;;;17.52;;
24173;SDS011;12324;48.146;11.502;2023-02-08T15:52:19;27.40;;;16.48;;
24173;SDS011;12324;48.146;11.502;2023-02-08T15:54:46;32.55;;;17.05;;
24173;SDS011;12324;48.146;11.502;2023-02-08T15:57:31;28.67;;;16.60;;
24173;SDS011;12324;48.146;11.502;2023-02-08T15:59:59;29.63;;;17.25;;
24173;SDS011;12324;48.146;11.502;2023-02-08T16:02:27;29.80;;;17.23;;
24173;SDS011;12324;48.146;11.502;2023-02-08T16:04:55;32.20;;;17.25;;
24173;SDS011;12324;48.146;11.502;2023-02-08T16:07:24;25.92;;;15.63;;
24173;SDS011;12324;48.146;11.502;2023-02-08T16:09:53;30.67;;;17.98;;
24173;SDS011;12324;48.146;11.502;2023-02-08T16:12:21;29.63;;;17.45;;
24173;SDS011;12324;48.146;11.502;2023-02-08T16:14:49;28.95;;;16.80;;
24173;SDS011;12324;48.146;11.502;2023-02-08T16:17:31;33.35;;;17.20;;
24173;SDS011;12324;48.146;11.502;2023-02-08T16:19:59;31.70;;;17.48;;
24173;SDS011;12324;48.146;11.502;2023-02-08T16:22:32;31.63;;;17.45;;
24173;SDS011;12324;48.146;11.502;2023-02-08T16:27:48;31.13;;;18.55;;
24173;SDS011;12324;48.146;11.502;2023-02-08T16:30:18;29.90;;;17.25;;
24173;SDS011;12324;48.146;11.502;2023-02-08T16:32:46;29.30;;;17.70;;
24173;SDS011;12324;48.146;11.502;2023-02-08T16:35:17;33.17;;;17.45;;
24173;SDS011;12324;48.146;11.502;2023-02-08T16:37:51;28.48;;;16.98;;
24173;SDS011;12324;48.146;11.502;2023-02-08T16:45:49;31.02;;;17.55;;